Time;durP1;ratioP1;P1;durP2;ratioP2;P2;SDS_P1;SDS_P2;PMS_P1;PMS_P2;Temp;Humidity;BMP_temperature;BMP_pressure;BME280_temperature;BME280_humidity;BME280_pressure;Samples;Min_cycle;Max_cycle;Signal;HPM_P1;HPM_P2
2021/04/08 00:00:20;;;;;;;6.82;3.45;;;1.90;18.00;;;;;;5011139;28;20041;-72
2021/04/08 00:02:47;;;;;;;6.50;3.92;;;2.00;18.70;;;;;;5009956;28;20053;-73
2021/04/08 00:05:15;;;;;;;5.32;3.75;;;1.90;18.90;;;;;;5009238;28;20046;-74
2021/04/08 00:07:43;;;;;;;8.70;4.47;;;1.90;18.60;;;;;;5011257;28;20049;-73
2021/04/08 00:10:11;;;;;;;6.68;3.63;;;1.90;18.40;;;;;;5012755;28;20053;-72
2021/04/08 00:12:39;;;;;;;8.82;3.78;;;1.90;18.10;;;;;;5009742;28;20752;-72
2021/04/08 00:15:07;;;;;;;7.10;3.60;;;1.90;17.60;;;;;;5012148;28;20128;-73
2021/04/08 00:17:34;;;;;;;6.60;3.83;;;1.90;18.30;;;;;;5010903;28;20057;-72
2021/04/08 00:20:01;;;;;;;6.25;3.97;;;1.90;18.30;;;;;;5014136;28;20053;-72
2021/04/08 00:22:28;;;;;;;6.68;4.28;;;1.90;18.70;;;;;;5009526;28;20042;-72
2021/04/08 00:24:55;;;;;;;7.55;4.13;;;1.90;18.20;;;;;;5008281;28;20057;-71
2021/04/08 00:27:22;;;;;;;5.80;4.50;;;1.90;18.40;;;;;;5010673;28;20056;-73
2021/04/08 00:29:49;;;;;;;5.72;4.28;;;1.90;18.60;;;;;;5015426;28;20049;-72
2021/04/08 00:32:16;;;;;;;8.43;3.90;;;1.90;18.50;;;;;;5007726;28;20504;-72
2021/04/08 00:34:43;;;;;;;5.95;3.95;;;1.90;18.60;;;;;;5009697;28;20049;-74
2021/04/08 00:37:10;;;;;;;7.95;4.03;;;1.90;18.80;;;;;;5011592;28;20050;-73
2021/04/08 00:39:36;;;;;;;10.13;4.15;;;1.90;19.50;;;;;;5012972;28;20049;-73
2021/04/08 00:42:06;;;;;;;5.72;3.90;;;1.90;19.50;;;;;;5007022;28;20049;-73
2021/04/08 00:44:32;;;;;;;7.43;4.60;;;2.00;19.70;;;;;;5007329;28;20058;-72
2021/04/08 00:46:59;;;;;;;6.85;4.05;;;2.00;20.20;;;;;;5011207;28;20046;-73
2021/04/08 00:49:26;;;;;;;7.93;4.63;;;2.00;20.60;;;;;;5012106;28;20069;-72
2021/04/08 00:51:53;;;;;;;10.98;4.90;;;2.00;20.00;;;;;;5008701;28;20083;-73
2021/04/08 00:54:20;;;;;;;7.47;4.28;;;2.00;19.90;;;;;;5009492;28;20046;-73
2021/04/08 00:56:48;;;;;;;6.82;4.57;;;2.00;20.00;;;;;;5013726;28;20042;-72
2021/04/08 00:59:17;;;;;;;10.20;4.50;;;1.90;20.10;;;;;;5010569;28;20077;-72
2021/04/08 01:01:43;;;;;;;10.02;4.80;;;2.00;19.80;;;;;;5011160;28;20786;-72
2021/04/08 01:04:10;;;;;;;7.32;4.60;;;2.00;19.90;;;;;;5008315;28;20054;-72
2021/04/08 01:06:37;;;;;;;9.20;4.63;;;1.90;20.50;;;;;;5012471;28;20052;-73
2021/04/08 01:09:06;;;;;;;10.85;4.68;;;2.00;20.00;;;;;;5014525;28;20075;-73
2021/04/08 01:11:33;;;;;;;8.38;4.63;;;2.00;19.70;;;;;;5010705;28;20058;-72
2021/04/08 01:14:00;;;;;;;9.43;5.15;;;2.10;19.30;;;;;;5010652;28;20065;-73
2021/04/08 01:16:35;;;;;;;6.85;4.35;;;2.10;19.10;;;;;;5015570;28;21264;-73
2021/04/08 01:19:17;;;;;;;8.13;5.38;;;2.10;18.60;;;;;;5010068;28;20061;-72
2021/04/08 01:21:52;;;;;;;6.80;4.15;;;2.10;16.80;;;;;;5006711;28;20049;-73
2021/04/08 01:25:00;;;;;;;8.75;4.75;;;2.10;17.10;;;;;;5015517;28;20057;-73
2021/04/08 01:27:36;;;;;;;8.77;5.18;;;2.10;16.70;;;;;;4983886;28;20080;-72
2021/04/08 01:30:23;;;;;;;9.60;4.43;;;2.10;16.80;;;;;;5011852;28;20054;-73
2021/04/08 01:32:53;;;;;;;7.75;4.40;;;2.00;16.30;;;;;;5010140;28;20057;-73
2021/04/08 01:35:25;;;;;;;7.88;4.65;;;2.10;16.80;;;;;;5009740;28;20125;-72
2021/04/08 01:37:58;;;;;;;7.43;4.95;;;2.10;17.00;;;;;;5015231;28;20054;-74
2021/04/08 01:40:26;;;;;;;12.27;4.65;;;2.20;17.50;;;;;;5013587;28;20418;-74
2021/04/08 01:42:55;;;;;;;13.30;5.30;;;2.10;17.10;;;;;;5010615;28;20498;-74
2021/04/08 01:45:28;;;;;;;7.95;4.93;;;2.10;18.00;;;;;;5008867;28;20046;-74
2021/04/08 01:47:57;;;;;;;7.47;4.65;;;2.20;18.40;;;;;;5010688;28;20424;-74
2021/04/08 01:50:26;;;;;;;7.25;4.18;;;2.20;17.90;;;;;;5011807;28;20046;-74
2021/04/08 01:52:54;;;;;;;6.22;4.20;;;2.20;17.80;;;;;;5015525;28;20053;-73
2021/04/08 01:55:22;;;;;;;5.57;4.47;;;2.20;17.20;;;;;;5013627;28;20041;-72
2021/04/08 01:57:51;;;;;;;6.63;4.07;;;2.30;15.30;;;;;;5012930;28;20056;-73
2021/04/08 02:00:21;;;;;;;8.70;4.50;;;2.30;14.60;;;;;;5014739;28;20050;-73
2021/04/08 02:02:51;;;;;;;6.93;4.30;;;2.20;14.30;;;;;;5018305;28;20072;-74
2021/04/08 02:05:19;;;;;;;7.95;4.03;;;2.30;15.00;;;;;;5014952;28;20046;-72
2021/04/08 02:07:48;;;;;;;6.15;4.20;;;2.30;14.00;;;;;;5017342;28;20057;-73
2021/04/08 02:10:16;;;;;;;5.28;3.90;;;2.40;13.60;;;;;;5013376;28;20054;-73
2021/04/08 02:12:46;;;;;;;5.70;3.67;;;2.50;13.50;;;;;;5012759;28;20069;-73
2021/04/08 02:15:18;;;;;;;6.30;3.78;;;2.40;13.10;;;;;;5012023;28;20140;-73
2021/04/08 02:17:47;;;;;;;6.80;3.72;;;2.40;12.10;;;;;;5009549;28;20050;-73
2021/04/08 02:20:16;;;;;;;7.55;3.83;;;2.40;12.00;;;;;;5009860;28;20108;-73
2021/04/08 02:22:47;;;;;;;10.90;4.30;;;2.50;11.80;;;;;;5012406;28;20057;-73
2021/04/08 02:25:16;;;;;;;7.25;4.13;;;2.50;11.70;;;;;;5011907;28;20474;-73
2021/04/08 02:27:44;;;;;;;7.15;4.40;;;2.50;10.80;;;;;;5011314;28;20053;-73
2021/04/08 02:30:14;;;;;;;6.88;3.72;;;2.40;7.40;;;;;;5008399;28;20057;-73
2021/04/08 02:32:41;;;;;;;6.20;3.63;;;2.50;8.10;;;;;;5012059;28;20054;-73
2021/04/08 02:35:11;;;;;;;5.38;3.45;;;2.40;9.80;;;;;;5010925;28;20112;-74
2021/04/08 02:37:38;;;;;;;8.82;3.75;;;2.50;10.50;;;;;;5010226;28;20454;-73
2021/04/08 02:40:08;;;;;;;6.72;3.80;;;2.50;10.40;;;;;;5014243;28;20064;-73
2021/04/08 02:42:35;;;;;;;6.40;3.67;;;2.50;10.30;;;;;;5013379;28;20060;-73
2021/04/08 02:45:03;;;;;;;6.00;3.75;;;2.40;9.90;;;;;;5008862;28;20046;-73
2021/04/08 02:47:30;;;;;;;6.55;3.72;;;2.40;10.30;;;;;;5012846;28;20061;-73
2021/04/08 02:49:57;;;;;;;6.47;4.10;;;2.40;11.50;;;;;;5012290;28;20096;-73
2021/04/08 02:52:27;;;;;;;8.60;4.25;;;2.40;10.30;;;;;;5010891;28;20050;-74
2021/04/08 02:55:00;;;;;;;9.18;4.50;;;2.40;10.60;;;;;;5013631;28;20048;-74
2021/04/08 02:57:33;;;;;;;5.78;3.80;;;2.40;9.50;;;;;;5012318;28;20526;-74
2021/04/08 03:00:07;;;;;;;8.65;4.30;;;2.40;10.20;;;;;;5012591;28;20072;-73
2021/04/08 03:02:36;;;;;;;5.97;3.70;;;2.30;9.60;;;;;;5008202;28;20084;-74
2021/04/08 03:05:07;;;;;;;8.55;4.13;;;2.30;10.00;;;;;;5018647;28;20049;-73
2021/04/08 03:07:40;;;;;;;6.45;4.15;;;2.30;10.00;;;;;;5010262;28;20054;-73
2021/04/08 03:10:10;;;;;;;6.20;3.85;;;2.30;10.30;;;;;;5015770;28;20393;-73
2021/04/08 03:12:43;;;;;;;6.97;4.07;;;2.30;8.70;;;;;;5010346;28;20050;-72
2021/04/08 03:15:11;;;;;;;6.65;4.22;;;2.40;9.00;;;;;;5010396;28;20060;-73
2021/04/08 03:17:42;;;;;;;6.25;3.70;;;2.40;8.80;;;;;;5012658;28;20050;-73
2021/04/08 03:20:12;;;;;;;9.35;4.25;;;2.40;8.90;;;;;;5017875;28;20049;-73
2021/04/08 03:22:40;;;;;;;9.40;5.60;;;2.40;8.10;;;;;;5009391;28;20506;-73
2021/04/08 03:25:08;;;;;;;9.05;5.30;;;2.30;7.30;;;;;;5010214;28;20052;-73
2021/04/08 03:27:37;;;;;;;9.25;6.65;;;2.40;7.30;;;;;;5014439;28;20054;-73
2021/04/08 03:30:09;;;;;;;16.48;9.02;;;2.40;4.60;;;;;;5014690;28;20050;-74
2021/04/08 03:32:36;;;;;;;19.35;9.82;;;2.40;1.00;;;;;;5010171;28;20054;-73
2021/04/08 03:35:06;;;;;;;22.55;10.38;;;2.40;1.00;;;;;;5008863;28;20133;-73
2021/04/08 03:37:32;;;;;;;24.45;11.13;;;2.40;1.20;;;;;;5014061;28;20575;-73
2021/04/08 03:40:00;;;;;;;24.23;10.93;;;2.40;1.00;;;;;;5010486;28;20139;-73
2021/04/08 03:42:27;;;;;;;26.73;11.13;;;2.40;1.00;;;;;;5011002;28;20476;-72
2021/04/08 03:44:54;;;;;;;19.33;8.27;;;2.30;1.00;;;;;;5012766;28;20053;-73
2021/04/08 03:47:24;;;;;;;12.43;7.15;;;2.30;1.00;;;;;;5011926;28;20053;-73
2021/04/08 03:49:52;;;;;;;11.38;6.07;;;2.30;1.00;;;;;;5013122;28;20054;-73
2021/04/08 03:52:20;;;;;;;10.85;6.13;;;2.30;1.00;;;;;;5009791;28;20046;-73
2021/04/08 03:54:50;;;;;;;12.70;4.97;;;2.20;1.00;;;;;;5012368;28;20119;-73
2021/04/08 03:57:18;;;;;;;7.18;4.05;;;2.20;1.00;;;;;;5012970;28;20049;-73
2021/04/08 03:59:46;;;;;;;10.25;5.25;;;2.20;1.00;;;;;;5012173;28;20073;-74
2021/04/08 04:02:16;;;;;;;6.63;4.80;;;2.20;1.00;;;;;;5009536;28;20048;-73
2021/04/08 04:04:45;;;;;;;9.25;4.95;;;2.10;1.00;;;;;;5008878;28;20053;-73
2021/04/08 04:07:14;;;;;;;8.57;4.60;;;2.20;1.00;;;;;;5011398;28;20056;-74
2021/04/08 04:09:41;;;;;;;9.10;4.85;;;2.20;1.00;;;;;;5013889;28;20046;-73
2021/04/08 04:12:13;;;;;;;8.25;4.57;;;2.10;1.00;;;;;;5011533;28;20081;-73
2021/04/08 04:14:41;;;;;;;13.35;4.63;;;2.10;1.00;;;;;;5006898;28;20519;-73
2021/04/08 04:17:24;;;;;;;8.65;4.65;;;2.10;1.00;;;;;;5011067;28;20045;-72
2021/04/08 04:19:52;;;;;;;7.60;4.13;;;2.10;1.00;;;;;;5010618;28;20133;-74
2021/04/08 04:22:36;;;;;;;7.97;4.43;;;2.10;1.00;;;;;;5010557;28;20061;-73
2021/04/08 04:25:04;;;;;;;8.82;4.75;;;2.20;1.00;;;;;;5011821;28;20100;-72
2021/04/08 04:27:31;;;;;;;10.75;4.45;;;2.10;1.00;;;;;;5011518;28;20045;-73
2021/04/08 04:29:58;;;;;;;10.82;4.50;;;2.10;1.00;;;;;;5012526;28;20500;-73
2021/04/08 04:32:25;;;;;;;8.13;4.70;;;2.10;1.00;;;;;;5010340;28;20068;-73
2021/04/08 04:34:53;;;;;;;14.25;4.70;;;2.20;1.00;;;;;;5012004;28;20050;-73
2021/04/08 04:37:20;;;;;;;7.40;4.45;;;2.20;1.00;;;;;;5010174;28;20041;-72
2021/04/08 04:39:48;;;;;;;7.72;4.30;;;2.10;1.00;;;;;;5012644;28;20103;-73
2021/04/08 04:42:14;;;;;;;7.20;4.35;;;2.10;1.00;;;;;;5008671;28;20593;-73
2021/04/08 04:44:41;;;;;;;9.45;4.88;;;2.20;1.00;;;;;;5011505;28;20492;-73
2021/04/08 04:47:08;;;;;;;7.80;4.47;;;2.20;1.00;;;;;;5014134;28;20042;-73
2021/04/08 04:49:35;;;;;;;7.03;4.22;;;2.20;1.00;;;;;;5011193;28;20705;-74
2021/04/08 04:52:04;;;;;;;9.98;4.68;;;2.20;1.00;;;;;;5011980;28;20049;-73
2021/04/08 04:54:30;;;;;;;8.35;4.18;;;2.20;1.00;;;;;;5008747;28;20046;-72
2021/04/08 04:56:57;;;;;;;8.40;4.20;;;2.20;1.00;;;;;;5014931;28;20045;-73
2021/04/08 04:59:24;;;;;;;6.90;4.40;;;2.20;1.00;;;;;;5011721;28;20046;-73
2021/04/08 05:01:51;;;;;;;12.35;4.80;;;2.30;1.00;;;;;;5010072;28;20068;-74
2021/04/08 05:04:18;;;;;;;7.53;4.25;;;2.30;1.00;;;;;;5012312;28;20173;-72
2021/04/08 05:06:45;;;;;;;8.65;4.22;;;2.30;1.00;;;;;;5016659;28;20045;-73
2021/04/08 05:09:13;;;;;;;6.78;4.10;;;2.40;1.00;;;;;;5012823;28;20439;-73
2021/04/08 05:11:40;;;;;;;10.43;4.95;;;2.40;1.00;;;;;;5011103;28;20041;-74
2021/04/08 05:14:06;;;;;;;10.80;4.85;;;2.50;1.00;;;;;;5009713;28;20053;-75
2021/04/08 05:16:33;;;;;;;8.57;4.60;;;2.60;1.00;;;;;;5011747;28;20504;-75
2021/04/08 05:19:00;;;;;;;14.18;4.72;;;2.60;1.00;;;;;;5014949;28;20508;-74
2021/04/08 05:21:27;;;;;;;7.78;5.22;;;2.60;1.00;;;;;;5011704;28;20050;-73
2021/04/08 05:23:54;;;;;;;8.40;4.65;;;2.60;1.00;;;;;;5015362;28;20064;-74
2021/04/08 05:26:22;;;;;;;9.80;4.97;;;2.60;1.00;;;;;;5009696;28;20046;-74
2021/04/08 05:28:49;;;;;;;7.43;4.63;;;2.50;1.00;;;;;;5015884;28;20045;-74
2021/04/08 05:31:15;;;;;;;9.88;4.82;;;2.50;1.00;;;;;;5009890;28;20053;-74
2021/04/08 05:33:42;;;;;;;10.43;5.30;;;2.50;1.00;;;;;;5011615;28;20156;-73
2021/04/08 05:36:10;;;;;;;9.55;5.00;;;2.50;1.00;;;;;;5013567;28;20421;-74
2021/04/08 05:38:37;;;;;;;6.60;4.32;;;2.50;1.00;;;;;;5012686;28;20050;-74
2021/04/08 05:41:04;;;;;;;7.30;4.30;;;2.50;1.00;;;;;;5011694;28;20056;-73
2021/04/08 05:43:31;;;;;;;6.78;4.30;;;2.60;1.00;;;;;;5011315;28;20049;-73
2021/04/08 05:45:58;;;;;;;9.38;4.22;;;2.60;1.00;;;;;;5012363;28;20144;-73
2021/04/08 05:48:25;;;;;;;6.47;4.05;;;2.70;1.00;;;;;;5012212;28;20061;-74
2021/04/08 05:50:52;;;;;;;6.78;3.83;;;2.80;1.00;;;;;;5015776;28;20045;-73
2021/04/08 05:53:19;;;;;;;10.82;4.75;;;2.80;1.00;;;;;;5011917;28;20041;-73
2021/04/08 05:55:46;;;;;;;7.80;4.00;;;2.70;1.00;;;;;;5011002;28;20046;-73
2021/04/08 05:58:13;;;;;;;7.13;4.15;;;2.70;1.00;;;;;;5011992;28;20052;-73
2021/04/08 06:00:41;;;;;;;8.88;3.95;;;2.70;1.00;;;;;;5007499;28;20046;-74
2021/04/08 06:03:08;;;;;;;11.48;4.45;;;2.80;1.00;;;;;;5010154;28;20060;-73
2021/04/08 06:05:35;;;;;;;6.53;4.25;;;2.90;1.00;;;;;;5007081;28;20050;-73
2021/04/08 06:08:03;;;;;;;10.98;4.60;;;3.00;1.00;;;;;;5012705;28;20060;-74
2021/04/08 06:10:30;;;;;;;11.23;4.57;;;3.00;1.00;;;;;;5011119;28;20045;-73
2021/04/08 06:12:56;;;;;;;10.85;4.60;;;3.00;1.00;;;;;;5010153;28;20412;-73
2021/04/08 06:15:24;;;;;;;9.98;5.03;;;3.30;1.00;;;;;;5008821;28;20053;-74
2021/04/08 06:17:51;;;;;;;8.30;4.28;;;3.30;1.00;;;;;;5011301;28;20046;-73
2021/04/08 06:20:18;;;;;;;6.20;4.80;;;3.40;1.00;;;;;;5011229;28;20627;-74
2021/04/08 06:23:01;;;;;;;8.88;4.18;;;3.50;1.00;;;;;;5009465;28;20049;-73
2021/04/08 06:25:28;;;;;;;11.85;4.45;;;3.60;1.00;;;;;;5013809;28;20056;-73
2021/04/08 06:27:55;;;;;;;9.13;4.70;;;3.20;1.00;;;;;;5014876;28;20041;-73
2021/04/08 06:30:23;;;;;;;6.82;4.55;;;3.50;1.00;;;;;;5009438;28;20125;-74
2021/04/08 06:32:52;;;;;;;8.93;4.60;;;3.60;1.00;;;;;;5005186;28;20056;-74
2021/04/08 06:35:20;;;;;;;10.65;5.30;;;3.40;1.00;;;;;;5011011;28;20056;-74
2021/04/08 06:37:50;;;;;;;8.75;4.68;;;3.60;1.00;;;;;;5014681;28;20045;-73
2021/04/08 06:40:19;;;;;;;9.88;5.38;;;3.60;1.00;;;;;;5016001;28;20073;-73
2021/04/08 06:42:47;;;;;;;12.25;4.80;;;3.30;1.00;;;;;;5013453;28;20128;-73
2021/04/08 06:45:15;;;;;;;6.38;4.28;;;3.50;1.00;;;;;;5013847;28;20049;-72
2021/04/08 06:47:52;;;;;;;9.20;4.50;;;3.90;1.00;;;;;;5008504;28;20046;-74
2021/04/08 06:50:25;;;;;;;8.68;4.45;;;4.10;1.00;;;;;;5013921;28;20046;-73
2021/04/08 06:52:52;;;;;;;11.13;5.07;;;4.20;1.00;;;;;;5013426;28;20050;-73
2021/04/08 06:55:20;;;;;;;8.80;4.72;;;4.60;1.00;;;;;;5018095;28;20053;-74
2021/04/08 06:57:48;;;;;;;10.80;5.35;;;4.70;1.00;;;;;;5014137;28;20049;-74
2021/04/08 07:00:16;;;;;;;11.32;4.57;;;4.80;1.00;;;;;;5012351;28;20045;-74
2021/04/08 07:02:44;;;;;;;9.13;5.25;;;4.80;1.00;;;;;;5012657;28;20050;-74
2021/04/08 07:05:11;;;;;;;11.90;4.95;;;4.50;1.00;;;;;;5012007;28;20148;-73
2021/04/08 07:07:39;;;;;;;14.40;6.13;;;4.90;1.00;;;;;;5016379;28;20428;-74
2021/04/08 07:10:07;;;;;;;10.65;5.63;;;4.60;1.00;;;;;;5014719;28;20048;-74
2021/04/08 07:12:34;;;;;;;9.68;5.38;;;4.60;1.00;;;;;;5016402;28;20115;-73
2021/04/08 07:15:01;;;;;;;8.98;5.30;;;5.00;1.00;;;;;;5015238;28;20511;-72
2021/04/08 07:17:28;;;;;;;10.30;5.22;;;4.60;1.00;;;;;;5014244;28;20428;-73
2021/04/08 07:19:57;;;;;;;11.20;4.70;;;4.90;1.00;;;;;;5015017;28;20133;-75
2021/04/08 07:22:25;;;;;;;11.88;5.05;;;5.00;1.00;;;;;;5013753;28;20119;-73
2021/04/08 07:24:53;;;;;;;6.93;4.47;;;4.80;1.00;;;;;;5013447;28;20170;-74
2021/04/08 07:27:22;;;;;;;8.68;4.53;;;4.20;1.00;;;;;;5021596;28;20053;-74
2021/04/08 07:29:52;;;;;;;9.07;4.72;;;4.60;1.00;;;;;;5016627;28;20500;-72
2021/04/08 07:32:25;;;;;;;10.77;5.18;;;4.80;1.00;;;;;;5017455;28;20448;-73
2021/04/08 07:34:55;;;;;;;9.35;4.40;;;5.30;1.00;;;;;;5010958;28;20137;-74
2021/04/08 07:37:29;;;;;;;10.40;4.32;;;5.30;1.00;;;;;;5027345;28;20479;-72
2021/04/08 07:39:58;;;;;;;8.98;4.60;;;5.10;1.00;;;;;;5018987;28;20053;-73
2021/04/08 07:42:30;;;;;;;8.55;4.22;;;5.10;1.00;;;;;;5013252;28;20426;-74
2021/04/08 07:44:59;;;;;;;8.07;3.97;;;4.70;1.00;;;;;;5014857;28;20060;-73
2021/04/08 07:47:29;;;;;;;9.00;4.20;;;5.50;1.00;;;;;;5019526;28;20049;-75
2021/04/08 07:49:58;;;;;;;6.40;3.88;;;5.60;1.00;;;;;;5016701;28;20090;-73
2021/04/08 07:52:28;;;;;;;9.02;4.43;;;5.60;1.00;;;;;;5020894;28;20053;-73
2021/04/08 07:55:14;;;;;;;7.28;3.88;;;5.90;1.00;;;;;;5018574;28;20423;-74
2021/04/08 07:58:00;;;;;;;10.40;4.18;;;6.00;1.00;;;;;;5021271;28;20045;-74
2021/04/08 08:00:30;;;;;;;7.30;3.78;;;6.00;1.00;;;;;;5016252;28;20797;-74
2021/04/08 08:02:59;;;;;;;12.20;4.22;;;5.40;1.00;;;;;;5015592;28;20049;-73
2021/04/08 08:05:28;;;;;;;5.28;4.07;;;5.30;1.00;;;;;;5017728;28;20058;-75
2021/04/08 08:08:09;;;;;;;8.23;4.30;;;5.60;1.00;;;;;;5022496;28;20442;-73
2021/04/08 08:10:39;;;;;;;9.82;4.22;;;5.50;1.00;;;;;;5016755;28;20050;-73
2021/04/08 08:13:09;;;;;;;7.30;4.40;;;5.70;1.00;;;;;;5008046;28;20068;-74
2021/04/08 08:15:40;;;;;;;11.75;5.28;;;5.60;1.00;;;;;;5013636;28;20145;-74
2021/04/08 08:18:25;;;;;;;10.60;4.55;;;5.50;1.00;;;;;;5018743;28;20514;-74
2021/04/08 08:20:58;;;;;;;;;;;6.10;1.00;;;;;;5021528;28;20053;-73
2021/04/08 08:23:34;;;;;;;7.30;3.50;;;5.70;1.00;;;;;;5008152;28;19921;-73
2021/04/08 08:26:24;;;;;;;9.55;4.20;;;5.40;1.00;;;;;;5011552;28;20045;-73
2021/04/08 08:28:52;;;;;;;8.48;4.40;;;4.90;1.00;;;;;;5011035;28;20054;-73
2021/04/08 08:31:42;;;;;;;9.27;4.32;;;5.30;1.00;;;;;;5016451;28;20060;-73
2021/04/08 08:34:14;;;;;;;7.13;4.07;;;5.40;1.00;;;;;;5010122;28;20089;-73
2021/04/08 08:36:42;;;;;;;6.55;3.88;;;5.60;1.00;;;;;;5020448;28;20482;-73
2021/04/08 08:39:11;;;;;;;8.48;4.22;;;5.30;1.00;;;;;;5016467;28;20137;-73
2021/04/08 08:41:40;;;;;;;7.25;4.88;;;5.40;1.00;;;;;;5016870;28;20444;-74
2021/04/08 08:44:09;;;;;;;6.75;4.07;;;5.00;1.00;;;;;;5012772;28;20054;-75
2021/04/08 08:46:43;;;;;;;5.60;4.07;;;4.60;1.00;;;;;;5020481;28;20063;-74
2021/04/08 08:49:12;;;;;;;6.40;4.22;;;4.90;1.00;;;;;;5015272;28;20053;-74
2021/04/08 08:51:40;;;;;;;9.50;4.95;;;4.90;1.00;;;;;;5012290;28;20504;-74
2021/04/08 08:54:09;;;;;;;7.68;4.30;;;4.80;1.00;;;;;;5013332;28;20135;-73
2021/04/08 08:56:37;;;;;;;14.80;4.70;;;5.00;1.00;;;;;;5015437;28;20129;-74
2021/04/08 08:59:06;;;;;;;13.80;5.93;;;5.10;1.00;;;;;;5015749;28;20053;-73
2021/04/08 09:01:35;;;;;;;8.00;4.68;;;5.10;1.00;;;;;;5031510;28;20084;-73
2021/04/08 09:04:04;;;;;;;13.32;6.40;;;5.10;1.00;;;;;;5010257;28;20054;-74
2021/04/08 09:06:44;;;;;;;9.32;4.93;;;5.20;1.00;;;;;;5020692;28;20064;-74
2021/04/08 09:09:14;;;;;;;8.32;5.45;;;5.50;1.00;;;;;;5013715;28;20042;-74
2021/04/08 09:11:42;;;;;;;10.68;5.68;;;5.70;1.00;;;;;;5018792;28;20054;-74
2021/04/08 09:14:11;;;;;;;9.07;5.28;;;5.60;1.00;;;;;;5018557;28;20056;-75
2021/04/08 09:16:48;;;;;;;10.90;5.72;;;6.20;1.00;;;;;;5013316;28;20060;-74
2021/04/08 09:19:27;;;;;;;11.35;5.65;;;5.70;1.00;;;;;;5012399;28;20054;-74
2021/04/08 09:21:58;;;;;;;10.00;6.03;;;5.70;1.00;;;;;;5012393;28;20060;-74
2021/04/08 09:24:37;;;;;;;7.90;5.80;;;6.10;1.00;;;;;;5017452;28;20060;-74
2021/04/08 09:27:06;;;;;;;10.60;5.72;;;5.10;1.00;;;;;;5019212;28;20053;-74
2021/04/08 09:29:51;;;;;;;11.65;5.47;;;5.30;1.00;;;;;;5012249;28;20057;-73
2021/04/08 09:32:28;;;;;;;14.18;5.57;;;5.50;1.00;;;;;;5017480;28;20042;-74
2021/04/08 09:35:17;;;;;;;10.40;5.78;;;5.60;1.00;;;;;;5008816;28;20140;-72
2021/04/08 09:38:24;;;;;;;15.50;6.43;;;5.30;1.00;;;;;;5015891;28;20512;-75
2021/04/08 09:41:00;;;;;;;9.27;5.78;;;5.40;1.00;;;;;;5011330;28;20510;-74
2021/04/08 09:43:29;;;;;;;10.38;5.80;;;5.20;1.00;;;;;;5009440;28;20508;-74
2021/04/08 09:46:06;;;;;;;7.85;5.40;;;5.20;1.00;;;;;;5014452;28;20519;-74
2021/04/08 09:48:45;;;;;;;10.57;5.85;;;4.70;1.00;;;;;;5019041;28;20049;-74
2021/04/08 09:51:32;;;;;;;9.32;6.10;;;5.10;1.00;;;;;;5015840;28;20128;-73
2021/04/08 09:54:07;;;;;;;9.57;5.25;;;4.80;1.00;;;;;;5014355;28;20054;-75
2021/04/08 09:56:46;;;;;;;9.70;5.40;;;5.30;1.00;;;;;;5022370;28;20472;-74
2021/04/08 09:59:15;;;;;;;9.15;5.60;;;6.20;1.00;;;;;;5019786;28;20464;-73
2021/04/08 10:01:43;;;;;;;8.77;5.50;;;6.30;1.00;;;;;;5014675;28;20054;-74
2021/04/08 10:04:22;;;;;;;13.38;5.30;;;6.00;1.00;;;;;;5010987;28;20480;-74
2021/04/08 10:07:03;;;;;;;9.70;6.05;;;6.10;1.00;;;;;;5013199;28;20492;-74
2021/04/08 10:09:30;;;;;;;9.38;5.03;;;5.50;1.00;;;;;;5011821;28;20081;-74
2021/04/08 10:11:57;;;;;;;11.40;5.43;;;5.60;1.00;;;;;;5019268;28;20065;-74
2021/04/08 10:14:25;;;;;;;9.50;6.03;;;6.10;1.00;;;;;;5013116;28;20770;-74
2021/04/08 10:17:03;;;;;;;12.48;5.85;;;6.00;1.00;;;;;;5015661;28;20065;-74
2021/04/08 10:19:32;;;;;;;8.73;5.22;;;5.80;1.00;;;;;;5021128;28;20408;-73
2021/04/08 10:22:00;;;;;;;7.32;5.20;;;5.80;1.00;;;;;;5014107;28;21758;-72
2021/04/08 10:24:34;;;;;;;12.55;6.35;;;5.70;1.00;;;;;;5013138;28;20060;-74
2021/04/08 10:27:10;;;;;;;10.05;5.68;;;6.30;1.00;;;;;;5022232;28;20073;-75
2021/04/08 10:29:37;;;;;;;8.95;5.75;;;6.30;1.00;;;;;;5021874;28;20056;-74
2021/04/08 10:32:05;;;;;;;11.85;5.97;;;5.80;1.00;;;;;;5029353;28;20057;-74
2021/04/08 10:34:35;;;;;;;7.80;5.47;;;6.80;1.00;;;;;;5020486;28;20056;-75
2021/04/08 10:37:03;;;;;;;19.10;5.93;;;6.60;1.00;;;;;;5016559;28;20046;-74
2021/04/08 10:39:32;;;;;;;8.38;5.63;;;6.70;1.00;;;;;;5023033;28;20045;-74
2021/04/08 10:42:01;;;;;;;9.50;5.43;;;7.30;1.00;;;;;;5018296;28;20057;-74
2021/04/08 10:44:35;;;;;;;8.85;6.00;;;6.80;1.00;;;;;;5019824;28;20464;-74
2021/04/08 10:47:10;;;;;;;8.73;6.00;;;6.60;1.00;;;;;;5015502;28;20050;-74
2021/04/08 10:49:39;;;;;;;8.55;5.43;;;7.10;1.00;;;;;;5015153;28;20578;-75
2021/04/08 10:52:09;;;;;;;11.65;5.82;;;7.00;1.00;;;;;;5019273;28;20053;-74
2021/04/08 10:54:38;;;;;;;11.73;5.85;;;6.70;1.00;;;;;;5017103;28;20049;-74
2021/04/08 10:57:06;;;;;;;10.35;5.30;;;6.90;1.00;;;;;;5018784;28;20055;-73
2021/04/08 10:59:34;;;;;;;6.78;5.13;;;6.50;1.00;;;;;;5017383;28;20498;-74
2021/04/08 11:02:03;;;;;;;11.15;6.07;;;6.40;1.00;;;;;;5017511;28;20061;-73
2021/04/08 11:04:36;;;;;;;8.32;5.80;;;6.90;1.00;;;;;;5009906;28;20066;-72
2021/04/08 11:07:03;;;;;;;9.23;5.80;;;7.50;1.00;;;;;;5012595;28;20056;-73
2021/04/08 11:09:30;;;;;;;10.68;5.60;;;6.80;1.00;;;;;;5015382;28;20059;-74
2021/04/08 11:11:57;;;;;;;10.27;5.63;;;7.20;1.00;;;;;;5012117;28;20046;-74
2021/04/08 11:14:25;;;;;;;8.60;5.35;;;6.90;1.00;;;;;;5012871;28;20054;-73
2021/04/08 11:16:57;;;;;;;9.57;5.78;;;6.60;1.00;;;;;;5011788;28;20046;-73
2021/04/08 11:19:25;;;;;;;8.90;5.85;;;6.90;1.00;;;;;;5012746;28;20045;-74
2021/04/08 11:21:54;;;;;;;10.18;6.05;;;7.10;1.00;;;;;;5009790;28;20128;-75
2021/04/08 11:24:21;;;;;;;9.02;6.03;;;6.70;1.00;;;;;;5008086;28;20133;-74
2021/04/08 11:26:50;;;;;;;10.45;5.90;;;6.80;1.00;;;;;;5012435;28;20142;-74
2021/04/08 11:29:23;;;;;;;11.82;5.88;;;7.10;1.00;;;;;;5013590;28;20069;-73
2021/04/08 11:32:13;;;;;;;8.73;5.78;;;6.70;1.00;;;;;;5010834;28;20594;-73
2021/04/08 11:34:45;;;;;;;12.43;6.30;;;7.30;1.00;;;;;;4993028;28;20073;-73
2021/04/08 11:37:14;;;;;;;11.15;5.50;;;6.80;1.00;;;;;;5011039;28;20056;-74
2021/04/08 11:39:41;;;;;;;10.10;5.85;;;7.20;1.00;;;;;;5014830;28;20516;-74
2021/04/08 11:42:16;;;;;;;10.60;5.82;;;7.50;1.00;;;;;;5009696;28;20120;-73
2021/04/08 11:44:44;;;;;;;10.85;6.03;;;6.50;1.00;;;;;;5011240;28;20050;-74
2021/04/08 11:47:12;;;;;;;9.48;6.03;;;6.80;1.00;;;;;;5011055;28;20046;-73
2021/04/08 11:49:44;;;;;;;9.32;5.82;;;6.10;1.00;;;;;;5013865;28;20239;-73
2021/04/08 11:52:14;;;;;;;11.98;6.10;;;7.50;1.00;;;;;;5008895;28;20205;-73
2021/04/08 11:54:57;;;;;;;9.95;5.68;;;7.10;1.00;;;;;;5011023;28;20065;-73
2021/04/08 11:57:24;;;;;;;9.45;5.65;;;6.80;1.00;;;;;;5014276;28;20518;-73
2021/04/08 11:59:58;;;;;;;9.35;5.78;;;6.70;1.00;;;;;;5011661;28;20054;-74
2021/04/08 12:02:33;;;;;;;9.35;5.88;;;7.50;1.00;;;;;;5010064;28;20564;-74
2021/04/08 12:05:01;;;;;;;11.93;6.28;;;7.20;1.00;;;;;;5013810;28;20051;-74
2021/04/08 12:07:29;;;;;;;11.90;5.40;;;7.70;1.00;;;;;;5008915;28;20520;-74
2021/04/08 12:09:56;;;;;;;8.73;5.28;;;8.10;1.00;;;;;;5007816;28;20136;-75
2021/04/08 12:12:31;;;;;;;10.43;5.80;;;8.10;1.00;;;;;;5007076;28;20423;-75
2021/04/08 12:14:59;;;;;;;9.32;5.47;;;6.90;1.00;;;;;;5009151;28;20049;-74
2021/04/08 12:17:28;;;;;;;8.60;5.43;;;7.60;1.00;;;;;;5009033;28;20050;-76
2021/04/08 12:20:11;;;;;;;8.93;5.32;;;7.60;1.00;;;;;;5011728;28;20053;-75
2021/04/08 12:22:39;;;;;;;10.07;5.15;;;7.60;1.00;;;;;;5008316;28;20049;-74
2021/04/08 12:25:11;;;;;;;7.80;5.72;;;7.30;1.00;;;;;;5012510;28;20064;-74
2021/04/08 12:27:39;;;;;;;7.40;5.20;;;7.50;1.00;;;;;;5010693;28;20046;-74
2021/04/08 12:30:08;;;;;;;8.57;5.63;;;7.40;1.00;;;;;;5010461;28;20045;-74
2021/04/08 12:32:35;;;;;;;9.35;6.15;;;7.90;1.00;;;;;;5009132;28;20574;-74
2021/04/08 12:35:04;;;;;;;7.13;5.35;;;8.80;1.00;;;;;;5007911;28;20061;-75
2021/04/08 12:37:31;;;;;;;8.35;6.00;;;9.00;1.00;;;;;;5011585;28;20108;-74
2021/04/08 12:40:03;;;;;;;9.65;5.97;;;7.70;1.00;;;;;;5009166;28;20072;-75
2021/04/08 12:42:30;;;;;;;10.52;5.95;;;8.00;1.00;;;;;;5008661;28;20057;-75
2021/04/08 12:44:58;;;;;;;8.10;5.72;;;7.70;1.00;;;;;;5007933;28;20061;-73
2021/04/08 12:47:26;;;;;;;8.13;5.60;;;8.40;1.00;;;;;;5011410;28;20512;-76
2021/04/08 12:49:53;;;;;;;11.43;5.25;;;8.60;1.00;;;;;;5007875;28;20049;-74
2021/04/08 12:52:20;;;;;;;10.40;5.57;;;8.80;1.00;;;;;;5006548;28;20052;-74
2021/04/08 12:54:47;;;;;;;14.32;6.10;;;8.80;1.00;;;;;;5008033;28;20050;-74
2021/04/08 12:57:16;;;;;;;8.85;5.50;;;8.60;1.00;;;;;;5006525;28;20116;-74
2021/04/08 12:59:43;;;;;;;7.20;5.53;;;8.00;1.00;;;;;;5010520;28;20523;-75
2021/04/08 13:02:10;;;;;;;9.80;5.20;;;8.40;1.00;;;;;;5006474;28;20140;-75
2021/04/08 13:04:37;;;;;;;12.00;5.03;;;8.80;1.00;;;;;;5009531;28;20054;-75
2021/04/08 13:07:04;;;;;;;12.50;6.22;;;9.40;1.00;;;;;;5009486;28;20085;-71
2021/04/08 13:09:31;;;;;;;7.25;5.03;;;9.20;1.00;;;;;;5007300;28;20766;-68
2021/04/08 13:11:59;;;;;;;11.82;5.03;;;9.50;1.00;;;;;;5009367;28;20056;-69
2021/04/08 13:14:27;;;;;;;12.90;5.18;;;9.10;1.00;;;;;;5008298;28;20065;-70
2021/04/08 13:16:54;;;;;;;9.27;6.00;;;9.10;1.00;;;;;;5009495;28;20050;-69